sensor_id;sensor_type;location;lat;lon;timestamp;pressure;altitude;pressure_sealevel;temperature
18713;BMP280;9485;49.386;8.674;2024-02-26T00:02:35;98479.22;;;11.91
18713;BMP280;9485;49.386;8.674;2024-02-26T00:07:58;98468.25;;;11.87
18713;BMP280;9485;49.386;8.674;2024-02-26T00:13:18;98462.72;;;11.82
18713;BMP280;9485;49.386;8.674;2024-02-26T00:18:39;98470.69;;;11.83
18713;BMP280;9485;49.386;8.674;2024-02-26T00:24:01;98472.19;;;11.84
18713;BMP280;9485;49.386;8.674;2024-02-26T00:29:22;98476.00;;;11.87
18713;BMP280;9485;49.386;8.674;2024-02-26T00:34:42;98487.44;;;11.81
18713;BMP280;9485;49.386;8.674;2024-02-26T00:40:06;98478.59;;;11.85
18713;BMP280;9485;49.386;8.674;2024-02-26T00:45:28;98504.28;;;11.87
18713;BMP280;9485;49.386;8.674;2024-02-26T00:50:49;98517.63;;;11.86
18713;BMP280;9485;49.386;8.674;2024-02-26T00:56:11;98509.72;;;11.85
18713;BMP280;9485;49.386;8.674;2024-02-26T01:01:32;98506.66;;;11.83
18713;BMP280;9485;49.386;8.674;2024-02-26T01:06:52;98518.53;;;11.81
18713;BMP280;9485;49.386;8.674;2024-02-26T01:12:14;98515.16;;;11.83
18713;BMP280;9485;49.386;8.674;2024-02-26T01:17:35;98519.84;;;11.80
18713;BMP280;9485;49.386;8.674;2024-02-26T01:22:56;98525.84;;;11.77
18713;BMP280;9485;49.386;8.674;2024-02-26T01:28:18;98546.59;;;11.79
18713;BMP280;9485;49.386;8.674;2024-02-26T01:33:38;98554.72;;;11.83
18713;BMP280;9485;49.386;8.674;2024-02-26T01:38:59;98559.97;;;11.79
18713;BMP280;9485;49.386;8.674;2024-02-26T01:44:21;98559.00;;;11.76
18713;BMP280;9485;49.386;8.674;2024-02-26T01:49:42;98564.44;;;11.74
18713;BMP280;9485;49.386;8.674;2024-02-26T01:55:04;98572.84;;;11.67
18713;BMP280;9485;49.386;8.674;2024-02-26T02:00:26;98581.63;;;11.50
18713;BMP280;9485;49.386;8.674;2024-02-26T02:05:47;98589.47;;;11.44
18713;BMP280;9485;49.386;8.674;2024-02-26T02:11:08;98571.78;;;11.31
18713;BMP280;9485;49.386;8.674;2024-02-26T02:16:32;98575.38;;;11.31
18713;BMP280;9485;49.386;8.674;2024-02-26T02:21:54;98583.50;;;11.35
18713;BMP280;9485;49.386;8.674;2024-02-26T02:27:15;98576.13;;;11.32
18713;BMP280;9485;49.386;8.674;2024-02-26T02:32:39;98581.78;;;11.32
18713;BMP280;9485;49.386;8.674;2024-02-26T02:38:02;98578.22;;;11.19
18713;BMP280;9485;49.386;8.674;2024-02-26T02:43:23;98576.59;;;11.10
18713;BMP280;9485;49.386;8.674;2024-02-26T02:48:44;98579.59;;;11.12
18713;BMP280;9485;49.386;8.674;2024-02-26T02:54:06;98591.44;;;11.11
18713;BMP280;9485;49.386;8.674;2024-02-26T02:59:26;98590.25;;;11.06
18713;BMP280;9485;49.386;8.674;2024-02-26T03:04:47;98592.88;;;11.04
18713;BMP280;9485;49.386;8.674;2024-02-26T03:10:09;98606.00;;;11.02
18713;BMP280;9485;49.386;8.674;2024-02-26T03:15:30;98599.81;;;10.90
18713;BMP280;9485;49.386;8.674;2024-02-26T03:20:51;98604.78;;;10.71
18713;BMP280;9485;49.386;8.674;2024-02-26T03:26:13;98603.88;;;10.50
18713;BMP280;9485;49.386;8.674;2024-02-26T03:31:33;98611.84;;;10.34
18713;BMP280;9485;49.386;8.674;2024-02-26T03:36:54;98621.94;;;10.11
18713;BMP280;9485;49.386;8.674;2024-02-26T03:42:16;98607.09;;;9.55
18713;BMP280;9485;49.386;8.674;2024-02-26T03:47:38;98612.44;;;9.16
18713;BMP280;9485;49.386;8.674;2024-02-26T03:53:00;98606.78;;;8.98
18713;BMP280;9485;49.386;8.674;2024-02-26T03:58:22;98595.34;;;8.91
18713;BMP280;9485;49.386;8.674;2024-02-26T04:03:42;98581.03;;;8.89
18713;BMP280;9485;49.386;8.674;2024-02-26T04:09:03;98577.50;;;8.83
18713;BMP280;9485;49.386;8.674;2024-02-26T04:14:25;98571.09;;;8.88
18713;BMP280;9485;49.386;8.674;2024-02-26T04:19:47;98561.56;;;8.91
18713;BMP280;9485;49.386;8.674;2024-02-26T04:25:08;98551.91;;;8.86
18713;BMP280;9485;49.386;8.674;2024-02-26T04:30:30;98536.19;;;8.96
18713;BMP280;9485;49.386;8.674;2024-02-26T04:35:51;98534.75;;;9.08
18713;BMP280;9485;49.386;8.674;2024-02-26T04:41:12;98535.97;;;9.12
18713;BMP280;9485;49.386;8.674;2024-02-26T04:46:33;98529.91;;;9.08
18713;BMP280;9485;49.386;8.674;2024-02-26T04:51:54;98527.19;;;8.97
18713;BMP280;9485;49.386;8.674;2024-02-26T04:57:15;98516.94;;;9.00
18713;BMP280;9485;49.386;8.674;2024-02-26T05:02:38;98507.44;;;9.03
18713;BMP280;9485;49.386;8.674;2024-02-26T05:07:59;98522.88;;;9.15
18713;BMP280;9485;49.386;8.674;2024-02-26T05:13:22;98529.44;;;9.23
18713;BMP280;9485;49.386;8.674;2024-02-26T05:18:44;98531.72;;;9.24
18713;BMP280;9485;49.386;8.674;2024-02-26T05:24:06;98533.78;;;9.24
18713;BMP280;9485;49.386;8.674;2024-02-26T05:29:27;98540.69;;;9.23
18713;BMP280;9485;49.386;8.674;2024-02-26T05:34:49;98520.53;;;9.19
18713;BMP280;9485;49.386;8.674;2024-02-26T05:40:11;98550.59;;;9.29
18713;BMP280;9485;49.386;8.674;2024-02-26T05:45:32;98540.41;;;9.26
18713;BMP280;9485;49.386;8.674;2024-02-26T05:50:54;98541.16;;;9.27
18713;BMP280;9485;49.386;8.674;2024-02-26T05:56:15;98550.81;;;9.31
18713;BMP280;9485;49.386;8.674;2024-02-26T06:01:36;98575.06;;;9.40
18713;BMP280;9485;49.386;8.674;2024-02-26T06:06:57;98582.13;;;9.46
18713;BMP280;9485;49.386;8.674;2024-02-26T06:12:18;98591.09;;;9.45
18713;BMP280;9485;49.386;8.674;2024-02-26T06:17:39;98614.38;;;9.45
18713;BMP280;9485;49.386;8.674;2024-02-26T06:23:00;98619.09;;;9.37
18713;BMP280;9485;49.386;8.674;2024-02-26T06:28:21;98647.53;;;9.15
18713;BMP280;9485;49.386;8.674;2024-02-26T06:33:41;98653.28;;;9.04
18713;BMP280;9485;49.386;8.674;2024-02-26T06:39:03;98654.84;;;9.00
18713;BMP280;9485;49.386;8.674;2024-02-26T06:44:24;98661.41;;;9.08
18713;BMP280;9485;49.386;8.674;2024-02-26T06:49:45;98662.06;;;9.19
18713;BMP280;9485;49.386;8.674;2024-02-26T06:55:08;98668.59;;;9.33
18713;BMP280;9485;49.386;8.674;2024-02-26T07:00:29;98666.63;;;9.46
18713;BMP280;9485;49.386;8.674;2024-02-26T07:05:50;98676.84;;;9.49
18713;BMP280;9485;49.386;8.674;2024-02-26T07:11:12;98679.34;;;9.53
18713;BMP280;9485;49.386;8.674;2024-02-26T07:16:33;98680.50;;;9.63
18713;BMP280;9485;49.386;8.674;2024-02-26T07:21:54;98679.16;;;9.69
18713;BMP280;9485;49.386;8.674;2024-02-26T07:27:16;98685.16;;;9.60
18713;BMP280;9485;49.386;8.674;2024-02-26T07:32:37;98672.28;;;9.65
18713;BMP280;9485;49.386;8.674;2024-02-26T07:37:57;98690.13;;;9.72
18713;BMP280;9485;49.386;8.674;2024-02-26T07:43:19;98678.66;;;9.65
18713;BMP280;9485;49.386;8.674;2024-02-26T07:48:39;98689.34;;;9.72
18713;BMP280;9485;49.386;8.674;2024-02-26T07:54:01;98689.34;;;9.72
18713;BMP280;9485;49.386;8.674;2024-02-26T07:59:23;98688.13;;;9.86
18713;BMP280;9485;49.386;8.674;2024-02-26T08:04:44;98693.91;;;9.99
18713;BMP280;9485;49.386;8.674;2024-02-26T08:10:06;98693.38;;;10.19
18713;BMP280;9485;49.386;8.674;2024-02-26T08:15:28;98700.03;;;10.34
18713;BMP280;9485;49.386;8.674;2024-02-26T08:20:49;98703.78;;;10.24
18713;BMP280;9485;49.386;8.674;2024-02-26T08:26:09;98713.00;;;10.43
18713;BMP280;9485;49.386;8.674;2024-02-26T08:31:32;98717.66;;;10.71
18713;BMP280;9485;49.386;8.674;2024-02-26T08:36:52;98713.94;;;10.95
18713;BMP280;9485;49.386;8.674;2024-02-26T08:42:13;98709.31;;;11.10
18713;BMP280;9485;49.386;8.674;2024-02-26T08:47:35;98707.16;;;11.16
18713;BMP280;9485;49.386;8.674;2024-02-26T08:52:56;98700.22;;;11.17
18713;BMP280;9485;49.386;8.674;2024-02-26T08:58:16;98718.25;;;11.27
18713;BMP280;9485;49.386;8.674;2024-02-26T09:03:39;98726.41;;;11.30
18713;BMP280;9485;49.386;8.674;2024-02-26T09:09:00;98731.22;;;11.35
18713;BMP280;9485;49.386;8.674;2024-02-26T09:14:21;98739.13;;;11.37
18713;BMP280;9485;49.386;8.674;2024-02-26T09:19:42;98744.31;;;11.33
18713;BMP280;9485;49.386;8.674;2024-02-26T09:25:04;98736.41;;;11.31
18713;BMP280;9485;49.386;8.674;2024-02-26T09:30:25;98737.28;;;11.39
18713;BMP280;9485;49.386;8.674;2024-02-26T09:35:48;98745.44;;;11.43
18713;BMP280;9485;49.386;8.674;2024-02-26T09:41:14;98746.31;;;11.51
18713;BMP280;9485;49.386;8.674;2024-02-26T09:46:35;98743.19;;;11.54
18713;BMP280;9485;49.386;8.674;2024-02-26T09:51:59;98761.13;;;11.57
18713;BMP280;9485;49.386;8.674;2024-02-26T09:57:21;98768.22;;;11.63
18713;BMP280;9485;49.386;8.674;2024-02-26T10:02:45;98765.25;;;11.82
18713;BMP280;9485;49.386;8.674;2024-02-26T10:08:09;98751.75;;;12.13
18713;BMP280;9485;49.386;8.674;2024-02-26T10:13:31;98757.00;;;12.56
18713;BMP280;9485;49.386;8.674;2024-02-26T10:18:53;98752.72;;;13.36
18713;BMP280;9485;49.386;8.674;2024-02-26T10:24:15;98761.84;;;13.98
18713;BMP280;9485;49.386;8.674;2024-02-26T10:29:36;98764.16;;;15.00
18713;BMP280;9485;49.386;8.674;2024-02-26T10:34:57;98763.28;;;15.27
18713;BMP280;9485;49.386;8.674;2024-02-26T10:40:19;98768.19;;;15.78
18713;BMP280;9485;49.386;8.674;2024-02-26T10:45:39;98773.31;;;15.80
18713;BMP280;9485;49.386;8.674;2024-02-26T10:51:03;98760.94;;;16.00
18713;BMP280;9485;49.386;8.674;2024-02-26T10:56:28;98767.53;;;16.25
18713;BMP280;9485;49.386;8.674;2024-02-26T11:01:50;98782.31;;;16.46
18713;BMP280;9485;49.386;8.674;2024-02-26T11:07:11;98792.22;;;16.22
18713;BMP280;9485;49.386;8.674;2024-02-26T11:12:35;98799.44;;;16.23
18713;BMP280;9485;49.386;8.674;2024-02-26T11:17:57;98810.19;;;16.55
18713;BMP280;9485;49.386;8.674;2024-02-26T11:23:18;98813.44;;;16.51
18713;BMP280;9485;49.386;8.674;2024-02-26T11:28:40;98811.72;;;16.48
18713;BMP280;9485;49.386;8.674;2024-02-26T11:34:03;98805.72;;;16.29
18713;BMP280;9485;49.386;8.674;2024-02-26T11:39:25;98802.31;;;16.08
18713;BMP280;9485;49.386;8.674;2024-02-26T11:44:47;98797.91;;;16.22
18713;BMP280;9485;49.386;8.674;2024-02-26T11:50:36;98804.91;;;16.44
18713;BMP280;9485;49.386;8.674;2024-02-26T11:56:22;98805.72;;;16.29
18713;BMP280;9485;49.386;8.674;2024-02-26T12:01:46;98805.69;;;16.44
18713;BMP280;9485;49.386;8.674;2024-02-26T12:07:08;98812.06;;;16.59
18713;BMP280;9485;49.386;8.674;2024-02-26T12:12:29;98818.50;;;16.67
18713;BMP280;9485;49.386;8.674;2024-02-26T12:17:52;98818.34;;;16.58
18713;BMP280;9485;49.386;8.674;2024-02-26T12:23:16;98825.03;;;16.46
18713;BMP280;9485;49.386;8.674;2024-02-26T12:28:37;98820.47;;;16.50
18713;BMP280;9485;49.386;8.674;2024-02-26T12:34:00;98839.97;;;16.61
18713;BMP280;9485;49.386;8.674;2024-02-26T12:39:21;98839.38;;;16.62
18713;BMP280;9485;49.386;8.674;2024-02-26T12:44:42;98846.25;;;16.59
18713;BMP280;9485;49.386;8.674;2024-02-26T12:50:07;98841.97;;;16.83
18713;BMP280;9485;49.386;8.674;2024-02-26T12:55:28;98842.97;;;17.17
18713;BMP280;9485;49.386;8.674;2024-02-26T13:00:50;98860.50;;;17.94
18713;BMP280;9485;49.386;8.674;2024-02-26T13:06:12;98850.94;;;18.23
18713;BMP280;9485;49.386;8.674;2024-02-26T13:11:33;98851.81;;;18.09
18713;BMP280;9485;49.386;8.674;2024-02-26T13:16:58;98853.41;;;18.44
18713;BMP280;9485;49.386;8.674;2024-02-26T13:22:21;98860.53;;;18.86
18713;BMP280;9485;49.386;8.674;2024-02-26T13:27:43;98851.34;;;19.21
18713;BMP280;9485;49.386;8.674;2024-02-26T13:33:11;98870.53;;;19.28
18713;BMP280;9485;49.386;8.674;2024-02-26T13:38:34;98875.69;;;18.79
18713;BMP280;9485;49.386;8.674;2024-02-26T13:43:54;98869.97;;;18.62
18713;BMP280;9485;49.386;8.674;2024-02-26T13:49:15;98874.69;;;18.84
18713;BMP280;9485;49.386;8.674;2024-02-26T13:54:36;98881.81;;;19.09
18713;BMP280;9485;49.386;8.674;2024-02-26T13:59:58;98875.09;;;18.97
18713;BMP280;9485;49.386;8.674;2024-02-26T14:05:18;98878.63;;;18.72
18713;BMP280;9485;49.386;8.674;2024-02-26T14:10:41;98884.84;;;18.44
18713;BMP280;9485;49.386;8.674;2024-02-26T14:16:04;98885.25;;;18.40
18713;BMP280;9485;49.386;8.674;2024-02-26T14:21:24;98888.50;;;18.20
18713;BMP280;9485;49.386;8.674;2024-02-26T14:26:47;98891.28;;;18.27
18713;BMP280;9485;49.386;8.674;2024-02-26T14:32:08;98883.41;;;18.35
18713;BMP280;9485;49.386;8.674;2024-02-26T14:37:28;98884.66;;;18.01
18713;BMP280;9485;49.386;8.674;2024-02-26T14:42:50;98879.34;;;17.73
18713;BMP280;9485;49.386;8.674;2024-02-26T14:48:11;98878.13;;;17.83
18713;BMP280;9485;49.386;8.674;2024-02-26T14:53:32;98885.81;;;17.73
18713;BMP280;9485;49.386;8.674;2024-02-26T14:58:54;98889.25;;;17.72
18713;BMP280;9485;49.386;8.674;2024-02-26T15:04:15;98886.78;;;17.68
18713;BMP280;9485;49.386;8.674;2024-02-26T15:09:36;98889.34;;;17.57
18713;BMP280;9485;49.386;8.674;2024-02-26T15:14:59;98881.81;;;17.44
18713;BMP280;9485;49.386;8.674;2024-02-26T15:20:22;98881.19;;;17.14
18713;BMP280;9485;49.386;8.674;2024-02-26T15:25:43;98885.56;;;17.08
18713;BMP280;9485;49.386;8.674;2024-02-26T15:31:04;98886.59;;;16.95
18713;BMP280;9485;49.386;8.674;2024-02-26T15:36:25;98902.38;;;16.96
18713;BMP280;9485;49.386;8.674;2024-02-26T15:41:46;98911.53;;;16.80
18713;BMP280;9485;49.386;8.674;2024-02-26T15:47:08;98921.63;;;16.73
18713;BMP280;9485;49.386;8.674;2024-02-26T15:52:29;98927.53;;;16.68
18713;BMP280;9485;49.386;8.674;2024-02-26T15:57:50;98939.16;;;16.48
18713;BMP280;9485;49.386;8.674;2024-02-26T16:03:12;98939.34;;;16.27
18713;BMP280;9485;49.386;8.674;2024-02-26T16:08:32;98944.84;;;16.25
18713;BMP280;9485;49.386;8.674;2024-02-26T16:14:01;98938.56;;;16.19
18713;BMP280;9485;49.386;8.674;2024-02-26T16:19:25;98939.34;;;16.12
18713;BMP280;9485;49.386;8.674;2024-02-26T16:24:46;98953.94;;;15.94
18713;BMP280;9485;49.386;8.674;2024-02-26T16:30:08;98952.03;;;15.81
18713;BMP280;9485;49.386;8.674;2024-02-26T16:35:31;98963.19;;;15.72
18713;BMP280;9485;49.386;8.674;2024-02-26T16:40:52;98971.88;;;15.59
18713;BMP280;9485;49.386;8.674;2024-02-26T16:46:13;98987.78;;;15.47
18713;BMP280;9485;49.386;8.674;2024-02-26T16:51:38;98983.19;;;15.37
18713;BMP280;9485;49.386;8.674;2024-02-26T16:56:59;98996.56;;;15.21
18713;BMP280;9485;49.386;8.674;2024-02-26T17:02:19;98983.44;;;15.11
18713;BMP280;9485;49.386;8.674;2024-02-26T17:07:41;99000.78;;;14.93
18713;BMP280;9485;49.386;8.674;2024-02-26T17:13:04;99008.50;;;14.85
18713;BMP280;9485;49.386;8.674;2024-02-26T17:18:25;99022.81;;;14.72
18713;BMP280;9485;49.386;8.674;2024-02-26T17:23:47;99031.59;;;14.61
18713;BMP280;9485;49.386;8.674;2024-02-26T17:29:08;99047.22;;;14.47
18713;BMP280;9485;49.386;8.674;2024-02-26T17:34:29;99055.81;;;14.34
18713;BMP280;9485;49.386;8.674;2024-02-26T17:39:51;99067.84;;;14.27
18713;BMP280;9485;49.386;8.674;2024-02-26T17:45:13;99084.63;;;14.18
18713;BMP280;9485;49.386;8.674;2024-02-26T17:50:33;99087.78;;;14.14
18713;BMP280;9485;49.386;8.674;2024-02-26T17:55:55;99086.34;;;14.08
18713;BMP280;9485;49.386;8.674;2024-02-26T18:01:16;99100.81;;;13.97
18713;BMP280;9485;49.386;8.674;2024-02-26T18:06:36;99114.59;;;13.93
18713;BMP280;9485;49.386;8.674;2024-02-26T18:11:59;99111.09;;;13.87
18713;BMP280;9485;49.386;8.674;2024-02-26T18:17:20;99118.63;;;13.84
18713;BMP280;9485;49.386;8.674;2024-02-26T18:22:42;99120.09;;;13.78
18713;BMP280;9485;49.386;8.674;2024-02-26T18:28:04;99130.47;;;13.75
18713;BMP280;9485;49.386;8.674;2024-02-26T18:33:24;99132.84;;;13.71
18713;BMP280;9485;49.386;8.674;2024-02-26T18:38:45;99127.50;;;13.68
18713;BMP280;9485;49.386;8.674;2024-02-26T18:44:07;99141.28;;;13.64
18713;BMP280;9485;49.386;8.674;2024-02-26T18:49:27;99163.97;;;13.64
18713;BMP280;9485;49.386;8.674;2024-02-26T18:54:48;99172.47;;;13.64
18713;BMP280;9485;49.386;8.674;2024-02-26T19:00:11;99187.63;;;13.66
18713;BMP280;9485;49.386;8.674;2024-02-26T19:05:31;99194.84;;;13.67
18713;BMP280;9485;49.386;8.674;2024-02-26T19:10:52;99204.31;;;13.70
18713;BMP280;9485;49.386;8.674;2024-02-26T19:16:14;99210.75;;;13.70
18713;BMP280;9485;49.386;8.674;2024-02-26T19:21:35;99213.56;;;13.70
18713;BMP280;9485;49.386;8.674;2024-02-26T19:26:56;99210.53;;;13.68
18713;BMP280;9485;49.386;8.674;2024-02-26T19:32:17;99227.22;;;13.59
18713;BMP280;9485;49.386;8.674;2024-02-26T19:37:38;99243.16;;;13.49
18713;BMP280;9485;49.386;8.674;2024-02-26T19:42:59;99246.69;;;13.11
18713;BMP280;9485;49.386;8.674;2024-02-26T19:48:21;99261.81;;;13.00
18713;BMP280;9485;49.386;8.674;2024-02-26T19:53:42;99271.25;;;12.90
18713;BMP280;9485;49.386;8.674;2024-02-26T19:59:02;99290.75;;;12.75
18713;BMP280;9485;49.386;8.674;2024-02-26T20:04:24;99280.44;;;12.41
18713;BMP280;9485;49.386;8.674;2024-02-26T20:09:45;99306.91;;;12.62
18713;BMP280;9485;49.386;8.674;2024-02-26T20:15:06;99315.72;;;12.58
18713;BMP280;9485;49.386;8.674;2024-02-26T20:20:28;99314.03;;;12.31
18713;BMP280;9485;49.386;8.674;2024-02-26T20:25:49;99331.41;;;12.22
18713;BMP280;9485;49.386;8.674;2024-02-26T20:31:11;99334.59;;;12.13
18713;BMP280;9485;49.386;8.674;2024-02-26T20:36:33;99348.44;;;12.17
18713;BMP280;9485;49.386;8.674;2024-02-26T20:41:53;99359.69;;;12.22
18713;BMP280;9485;49.386;8.674;2024-02-26T20:47:18;99368.03;;;12.33
18713;BMP280;9485;49.386;8.674;2024-02-26T20:52:39;99359.00;;;12.35
18713;BMP280;9485;49.386;8.674;2024-02-26T20:58:00;99357.19;;;12.37
18713;BMP280;9485;49.386;8.674;2024-02-26T21:03:21;99364.84;;;12.42
18713;BMP280;9485;49.386;8.674;2024-02-26T21:08:43;99360.72;;;12.43
18713;BMP280;9485;49.386;8.674;2024-02-26T21:14:04;99354.66;;;12.34
18713;BMP280;9485;49.386;8.674;2024-02-26T21:19:26;99381.00;;;12.47
18713;BMP280;9485;49.386;8.674;2024-02-26T21:24:47;99392.47;;;12.55
18713;BMP280;9485;49.386;8.674;2024-02-26T21:30:10;99396.72;;;12.67
18713;BMP280;9485;49.386;8.674;2024-02-26T21:35:31;99389.75;;;12.68
18713;BMP280;9485;49.386;8.674;2024-02-26T21:40:54;99399.13;;;12.75
18713;BMP280;9485;49.386;8.674;2024-02-26T21:46:15;99390.81;;;12.83
18713;BMP280;9485;49.386;8.674;2024-02-26T21:51:42;99395.66;;;12.88
18713;BMP280;9485;49.386;8.674;2024-02-26T21:57:05;99411.81;;;12.93
18713;BMP280;9485;49.386;8.674;2024-02-26T22:02:26;99413.59;;;12.96
18713;BMP280;9485;49.386;8.674;2024-02-26T22:07:46;99428.97;;;13.00
18713;BMP280;9485;49.386;8.674;2024-02-26T22:13:08;99443.06;;;13.06
18713;BMP280;9485;49.386;8.674;2024-02-26T22:18:28;99452.25;;;13.12
18713;BMP280;9485;49.386;8.674;2024-02-26T22:23:49;99459.38;;;13.18
18713;BMP280;9485;49.386;8.674;2024-02-26T22:29:11;99481.97;;;13.24
18713;BMP280;9485;49.386;8.674;2024-02-26T22:34:32;99484.88;;;13.18
18713;BMP280;9485;49.386;8.674;2024-02-26T22:39:52;99490.53;;;13.00
18713;BMP280;9485;49.386;8.674;2024-02-26T22:45:14;99507.31;;;12.98
18713;BMP280;9485;49.386;8.674;2024-02-26T22:50:38;99508.13;;;12.93
18713;BMP280;9485;49.386;8.674;2024-02-26T22:55:59;99519.84;;;12.84
18713;BMP280;9485;49.386;8.674;2024-02-26T23:01:22;99519.44;;;12.74
18713;BMP280;9485;49.386;8.674;2024-02-26T23:06:43;99521.91;;;12.60
18713;BMP280;9485;49.386;8.674;2024-02-26T23:12:04;99530.47;;;12.54
18713;BMP280;9485;49.386;8.674;2024-02-26T23:17:26;99530.09;;;12.39
18713;BMP280;9485;49.386;8.674;2024-02-26T23:22:49;99536.38;;;12.27
18713;BMP280;9485;49.386;8.674;2024-02-26T23:28:09;99518.31;;;12.06
18713;BMP280;9485;49.386;8.674;2024-02-26T23:33:32;99522.75;;;12.01
18713;BMP280;9485;49.386;8.674;2024-02-26T23:38:53;99529.69;;;12.00
18713;BMP280;9485;49.386;8.674;2024-02-26T23:44:18;99543.13;;;11.95
18713;BMP280;9485;49.386;8.674;2024-02-26T23:49:40;99543.34;;;11.97
18713;BMP280;9485;49.386;8.674;2024-02-26T23:55:00;99553.09;;;12.01
